sensor_id;sensor_type;location;lat;lon;timestamp;P1;durP1;ratioP1;P2;durP2;ratioP2
25938;SDS011;13739;51.172;4.466;2023-03-01T09:08:15;16.75;;;8.38;;
25938;SDS011;13739;51.172;4.466;2023-03-01T09:10:41;18.48;;;8.73;;
25938;SDS011;13739;51.172;4.466;2023-03-01T09:13:07;12.57;;;6.85;;
25938;SDS011;13739;51.172;4.466;2023-03-01T09:15:33;17.35;;;8.68;;
25938;SDS011;13739;51.172;4.466;2023-03-01T09:18:01;16.90;;;7.80;;
25938;SDS011;13739;51.172;4.466;2023-03-01T09:20:26;14.10;;;7.07;;
25938;SDS011;13739;51.172;4.466;2023-03-01T09:22:52;16.00;;;8.15;;
25938;SDS011;13739;51.172;4.466;2023-03-01T09:25:18;18.63;;;8.80;;
25938;SDS011;13739;51.172;4.466;2023-03-01T09:27:43;15.50;;;7.47;;
25938;SDS011;13739;51.172;4.466;2023-03-01T09:30:09;19.35;;;8.18;;
25938;SDS011;13739;51.172;4.466;2023-03-01T09:32:35;15.82;;;8.18;;
25938;SDS011;13739;51.172;4.466;2023-03-01T09:35:01;17.45;;;7.80;;
25938;SDS011;13739;51.172;4.466;2023-03-01T09:37:33;17.92;;;7.82;;
25938;SDS011;13739;51.172;4.466;2023-03-01T09:40:00;14.27;;;7.43;;
25938;SDS011;13739;51.172;4.466;2023-03-01T09:42:29;13.65;;;7.10;;
25938;SDS011;13739;51.172;4.466;2023-03-01T09:45:04;15.50;;;7.85;;
25938;SDS011;13739;51.172;4.466;2023-03-01T09:47:33;13.20;;;7.53;;
25938;SDS011;13739;51.172;4.466;2023-03-01T09:50:14;15.50;;;7.20;;
25938;SDS011;13739;51.172;4.466;2023-03-01T10:00:45;15.73;;;7.68;;
25938;SDS011;13739;51.172;4.466;2023-03-01T10:03:25;16.35;;;7.63;;
25938;SDS011;13739;51.172;4.466;2023-03-01T10:08:31;15.65;;;8.45;;
25938;SDS011;13739;51.172;4.466;2023-03-01T10:11:01;12.75;;;7.35;;
25938;SDS011;13739;51.172;4.466;2023-03-01T10:16:22;14.57;;;7.50;;
25938;SDS011;13739;51.172;4.466;2023-03-01T10:19:00;14.55;;;7.20;;
25938;SDS011;13739;51.172;4.466;2023-03-01T10:21:28;12.98;;;7.53;;
25938;SDS011;13739;51.172;4.466;2023-03-01T10:23:57;13.52;;;6.88;;
25938;SDS011;13739;51.172;4.466;2023-03-01T10:29:23;11.10;;;6.30;;
25938;SDS011;13739;51.172;4.466;2023-03-01T10:31:55;18.35;;;7.72;;
25938;SDS011;13739;51.172;4.466;2023-03-01T10:34:22;13.25;;;6.82;;
25938;SDS011;13739;51.172;4.466;2023-03-01T10:36:58;15.00;;;8.05;;
25938;SDS011;13739;51.172;4.466;2023-03-01T10:39:35;16.00;;;7.32;;
25938;SDS011;13739;51.172;4.466;2023-03-01T10:42:03;14.15;;;7.65;;
25938;SDS011;13739;51.172;4.466;2023-03-01T10:47:19;14.77;;;7.13;;
25938;SDS011;13739;51.172;4.466;2023-03-01T10:49:54;12.88;;;6.60;;
25938;SDS011;13739;51.172;4.466;2023-03-01T10:52:26;15.43;;;6.38;;
25938;SDS011;13739;51.172;4.466;2023-03-01T10:54:58;12.38;;;6.97;;
25938;SDS011;13739;51.172;4.466;2023-03-01T10:57:37;13.30;;;6.32;;
25938;SDS011;13739;51.172;4.466;2023-03-01T11:00:16;14.68;;;7.35;;
25938;SDS011;13739;51.172;4.466;2023-03-01T11:03:33;16.40;;;7.70;;
25938;SDS011;13739;51.172;4.466;2023-03-01T11:05:37;12.82;;;6.63;;
25938;SDS011;13739;51.172;4.466;2023-03-01T11:08:30;12.95;;;7.38;;
25938;SDS011;13739;51.172;4.466;2023-03-01T11:11:12;12.57;;;7.20;;
25938;SDS011;13739;51.172;4.466;2023-03-01T11:13:57;12.48;;;6.25;;
25938;SDS011;13739;51.172;4.466;2023-03-01T11:16:29;14.23;;;6.32;;
25938;SDS011;13739;51.172;4.466;2023-03-01T11:21:42;14.73;;;7.25;;
25938;SDS011;13739;51.172;4.466;2023-03-01T11:24:17;13.52;;;7.65;;
25938;SDS011;13739;51.172;4.466;2023-03-01T11:26:47;14.40;;;7.88;;
25938;SDS011;13739;51.172;4.466;2023-03-01T11:29:26;15.40;;;7.47;;
25938;SDS011;13739;51.172;4.466;2023-03-01T11:31:58;15.40;;;7.78;;
25938;SDS011;13739;51.172;4.466;2023-03-01T11:34:40;13.55;;;6.93;;
25938;SDS011;13739;51.172;4.466;2023-03-01T11:37:29;15.82;;;7.50;;
25938;SDS011;13739;51.172;4.466;2023-03-01T11:40:21;13.52;;;6.88;;
25938;SDS011;13739;51.172;4.466;2023-03-01T11:42:53;17.60;;;7.43;;
25938;SDS011;13739;51.172;4.466;2023-03-01T11:45:30;11.10;;;6.60;;
25938;SDS011;13739;51.172;4.466;2023-03-01T11:50:41;14.75;;;7.50;;
25938;SDS011;13739;51.172;4.466;2023-03-01T12:01:27;14.48;;;6.63;;
25938;SDS011;13739;51.172;4.466;2023-03-01T12:14:59;14.70;;;7.05;;
25938;SDS011;13739;51.172;4.466;2023-03-01T12:31:41;11.55;;;6.85;;
25938;SDS011;13739;51.172;4.466;2023-03-01T12:37:29;13.35;;;6.57;;
25938;SDS011;13739;51.172;4.466;2023-03-01T12:40:01;14.45;;;7.68;;
25938;SDS011;13739;51.172;4.466;2023-03-01T12:42:46;12.20;;;6.40;;
25938;SDS011;13739;51.172;4.466;2023-03-01T12:48:40;12.55;;;6.65;;
25938;SDS011;13739;51.172;4.466;2023-03-01T12:51:24;12.80;;;6.10;;
25938;SDS011;13739;51.172;4.466;2023-03-01T12:53:55;12.93;;;6.47;;
25938;SDS011;13739;51.172;4.466;2023-03-01T12:56:25;11.55;;;5.97;;
25938;SDS011;13739;51.172;4.466;2023-03-01T13:17:47;9.93;;;6.15;;
25938;SDS011;13739;51.172;4.466;2023-03-01T13:20:15;14.35;;;6.30;;
25938;SDS011;13739;51.172;4.466;2023-03-01T13:22:42;12.30;;;6.28;;
25938;SDS011;13739;51.172;4.466;2023-03-01T13:25:14;14.38;;;6.40;;
25938;SDS011;13739;51.172;4.466;2023-03-01T13:27:42;9.75;;;5.80;;
25938;SDS011;13739;51.172;4.466;2023-03-01T13:36:08;16.17;;;6.20;;
25938;SDS011;13739;51.172;4.466;2023-03-01T13:38:48;10.27;;;5.95;;
25938;SDS011;13739;51.172;4.466;2023-03-01T13:46:42;11.93;;;5.97;;
25938;SDS011;13739;51.172;4.466;2023-03-01T13:49:11;11.23;;;5.95;;
25938;SDS011;13739;51.172;4.466;2023-03-01T13:51:46;11.82;;;6.70;;
25938;SDS011;13739;51.172;4.466;2023-03-01T13:54:12;16.27;;;7.10;;
25938;SDS011;13739;51.172;4.466;2023-03-01T13:56:40;12.70;;;7.10;;
25938;SDS011;13739;51.172;4.466;2023-03-01T13:59:15;13.43;;;6.50;;
25938;SDS011;13739;51.172;4.466;2023-03-01T14:01:43;10.85;;;6.18;;
25938;SDS011;13739;51.172;4.466;2023-03-01T14:04:20;14.35;;;6.15;;
25938;SDS011;13739;51.172;4.466;2023-03-01T14:09:46;10.20;;;5.90;;
25938;SDS011;13739;51.172;4.466;2023-03-01T14:15:27;10.82;;;6.05;;
25938;SDS011;13739;51.172;4.466;2023-03-01T14:17:59;13.82;;;6.95;;
25938;SDS011;13739;51.172;4.466;2023-03-01T14:20:32;10.63;;;6.40;;
25938;SDS011;13739;51.172;4.466;2023-03-01T14:23:09;11.25;;;6.03;;
25938;SDS011;13739;51.172;4.466;2023-03-01T14:25:52;13.40;;;6.30;;
25938;SDS011;13739;51.172;4.466;2023-03-01T14:28:23;17.25;;;6.72;;
25938;SDS011;13739;51.172;4.466;2023-03-01T14:30:52;12.02;;;5.60;;
25938;SDS011;13739;51.172;4.466;2023-03-01T14:33:25;14.70;;;6.35;;
25938;SDS011;13739;51.172;4.466;2023-03-01T14:38:48;13.88;;;6.72;;
25938;SDS011;13739;51.172;4.466;2023-03-01T14:41:14;11.63;;;6.30;;
25938;SDS011;13739;51.172;4.466;2023-03-01T14:43:50;16.42;;;7.40;;
25938;SDS011;13739;51.172;4.466;2023-03-01T14:46:23;16.65;;;6.22;;
25938;SDS011;13739;51.172;4.466;2023-03-01T14:48:54;13.88;;;7.07;;
25938;SDS011;13739;51.172;4.466;2023-03-01T14:51:27;15.40;;;6.97;;
25938;SDS011;13739;51.172;4.466;2023-03-01T14:53:52;13.05;;;6.50;;
25938;SDS011;13739;51.172;4.466;2023-03-01T14:56:19;13.07;;;6.22;;
25938;SDS011;13739;51.172;4.466;2023-03-01T14:58:45;11.27;;;6.50;;
25938;SDS011;13739;51.172;4.466;2023-03-01T15:01:16;15.48;;;6.82;;
25938;SDS011;13739;51.172;4.466;2023-03-01T15:03:43;12.57;;;6.55;;
25938;SDS011;13739;51.172;4.466;2023-03-01T15:06:11;13.55;;;6.82;;
25938;SDS011;13739;51.172;4.466;2023-03-01T15:08:44;14.60;;;7.47;;
25938;SDS011;13739;51.172;4.466;2023-03-01T15:13:49;12.25;;;7.22;;
25938;SDS011;13739;51.172;4.466;2023-03-01T15:16:20;12.82;;;7.00;;
25938;SDS011;13739;51.172;4.466;2023-03-01T15:18:49;11.23;;;6.28;;
25938;SDS011;13739;51.172;4.466;2023-03-01T15:21:24;12.85;;;6.88;;
25938;SDS011;13739;51.172;4.466;2023-03-01T15:26:43;12.63;;;7.07;;
25938;SDS011;13739;51.172;4.466;2023-03-01T15:29:22;10.93;;;6.50;;
25938;SDS011;13739;51.172;4.466;2023-03-01T15:34:35;12.85;;;6.72;;
25938;SDS011;13739;51.172;4.466;2023-03-01T15:37:03;10.45;;;6.20;;
25938;SDS011;13739;51.172;4.466;2023-03-01T15:42:05;15.50;;;6.93;;
25938;SDS011;13739;51.172;4.466;2023-03-01T15:44:36;12.15;;;6.88;;
25938;SDS011;13739;51.172;4.466;2023-03-01T15:47:21;11.95;;;6.68;;
25938;SDS011;13739;51.172;4.466;2023-03-01T15:49:47;15.50;;;7.55;;
25938;SDS011;13739;51.172;4.466;2023-03-01T15:52:25;13.68;;;7.05;;
25938;SDS011;13739;51.172;4.466;2023-03-01T15:55:05;14.07;;;6.97;;
25938;SDS011;13739;51.172;4.466;2023-03-01T15:57:40;8.40;;;5.38;;
25938;SDS011;13739;51.172;4.466;2023-03-01T16:00:08;10.45;;;6.00;;
25938;SDS011;13739;51.172;4.466;2023-03-01T16:02:38;11.95;;;6.40;;
25938;SDS011;13739;51.172;4.466;2023-03-01T16:05:08;11.35;;;6.15;;
25938;SDS011;13739;51.172;4.466;2023-03-01T16:07:43;11.90;;;6.22;;
25938;SDS011;13739;51.172;4.466;2023-03-01T16:10:09;13.95;;;6.22;;
25938;SDS011;13739;51.172;4.466;2023-03-01T16:12:35;15.00;;;6.75;;
25938;SDS011;13739;51.172;4.466;2023-03-01T16:15:00;11.55;;;6.57;;
25938;SDS011;13739;51.172;4.466;2023-03-01T16:17:27;10.48;;;6.65;;
25938;SDS011;13739;51.172;4.466;2023-03-01T16:19:53;12.82;;;6.95;;
25938;SDS011;13739;51.172;4.466;2023-03-01T16:22:18;10.65;;;6.38;;
25938;SDS011;13739;51.172;4.466;2023-03-01T16:24:49;15.80;;;6.95;;
25938;SDS011;13739;51.172;4.466;2023-03-01T16:27:15;13.07;;;6.82;;
25938;SDS011;13739;51.172;4.466;2023-03-01T16:29:41;13.35;;;6.85;;
25938;SDS011;13739;51.172;4.466;2023-03-01T16:32:06;12.20;;;6.45;;
25938;SDS011;13739;51.172;4.466;2023-03-01T16:34:32;14.05;;;7.20;;
25938;SDS011;13739;51.172;4.466;2023-03-01T16:36:58;12.65;;;7.10;;
25938;SDS011;13739;51.172;4.466;2023-03-01T16:39:23;14.73;;;6.88;;
25938;SDS011;13739;51.172;4.466;2023-03-01T16:41:49;12.27;;;6.95;;
25938;SDS011;13739;51.172;4.466;2023-03-01T16:44:15;13.05;;;6.85;;
25938;SDS011;13739;51.172;4.466;2023-03-01T16:46:41;14.20;;;6.90;;
25938;SDS011;13739;51.172;4.466;2023-03-01T16:49:08;11.63;;;6.53;;
25938;SDS011;13739;51.172;4.466;2023-03-01T16:51:34;14.25;;;7.53;;
25938;SDS011;13739;51.172;4.466;2023-03-01T16:54:01;12.48;;;6.72;;
25938;SDS011;13739;51.172;4.466;2023-03-01T16:56:27;13.43;;;7.72;;
25938;SDS011;13739;51.172;4.466;2023-03-01T16:58:54;15.18;;;7.78;;
25938;SDS011;13739;51.172;4.466;2023-03-01T17:01:20;12.05;;;7.18;;
25938;SDS011;13739;51.172;4.466;2023-03-01T17:03:49;12.55;;;7.10;;
25938;SDS011;13739;51.172;4.466;2023-03-01T17:06:16;11.40;;;6.20;;
25938;SDS011;13739;51.172;4.466;2023-03-01T17:08:45;13.38;;;7.13;;
25938;SDS011;13739;51.172;4.466;2023-03-01T17:11:12;11.95;;;6.85;;
25938;SDS011;13739;51.172;4.466;2023-03-01T17:13:43;15.27;;;7.45;;
25938;SDS011;13739;51.172;4.466;2023-03-01T17:16:10;15.73;;;6.97;;
25938;SDS011;13739;51.172;4.466;2023-03-01T17:18:38;14.50;;;6.80;;
25938;SDS011;13739;51.172;4.466;2023-03-01T17:21:04;15.88;;;7.32;;
25938;SDS011;13739;51.172;4.466;2023-03-01T17:23:31;14.70;;;6.90;;
25938;SDS011;13739;51.172;4.466;2023-03-01T17:25:57;15.98;;;7.38;;
25938;SDS011;13739;51.172;4.466;2023-03-01T17:28:23;16.55;;;7.97;;
25938;SDS011;13739;51.172;4.466;2023-03-01T17:30:52;13.63;;;7.50;;
25938;SDS011;13739;51.172;4.466;2023-03-01T17:33:18;16.35;;;8.68;;
25938;SDS011;13739;51.172;4.466;2023-03-01T17:35:44;13.40;;;7.32;;
25938;SDS011;13739;51.172;4.466;2023-03-01T17:38:11;15.50;;;8.20;;
25938;SDS011;13739;51.172;4.466;2023-03-01T17:40:41;13.30;;;7.30;;
25938;SDS011;13739;51.172;4.466;2023-03-01T17:43:07;18.02;;;9.23;;
25938;SDS011;13739;51.172;4.466;2023-03-01T17:45:35;14.73;;;8.70;;
25938;SDS011;13739;51.172;4.466;2023-03-01T17:48:02;20.67;;;10.73;;
25938;SDS011;13739;51.172;4.466;2023-03-01T17:50:28;17.25;;;8.43;;
25938;SDS011;13739;51.172;4.466;2023-03-01T17:52:54;15.80;;;8.90;;
25938;SDS011;13739;51.172;4.466;2023-03-01T17:55:20;20.25;;;9.88;;
25938;SDS011;13739;51.172;4.466;2023-03-01T17:57:46;16.02;;;8.15;;
25938;SDS011;13739;51.172;4.466;2023-03-01T18:00:13;15.57;;;8.15;;
25938;SDS011;13739;51.172;4.466;2023-03-01T18:02:40;17.00;;;8.32;;
25938;SDS011;13739;51.172;4.466;2023-03-01T18:05:06;17.17;;;8.43;;
25938;SDS011;13739;51.172;4.466;2023-03-01T18:07:33;16.35;;;8.70;;
25938;SDS011;13739;51.172;4.466;2023-03-01T18:09:58;18.00;;;8.60;;
25938;SDS011;13739;51.172;4.466;2023-03-01T18:12:24;21.30;;;9.18;;
25938;SDS011;13739;51.172;4.466;2023-03-01T18:14:50;17.25;;;8.00;;
25938;SDS011;13739;51.172;4.466;2023-03-01T18:17:20;18.70;;;8.70;;
25938;SDS011;13739;51.172;4.466;2023-03-01T18:19:47;20.20;;;7.97;;
25938;SDS011;13739;51.172;4.466;2023-03-01T18:22:13;14.30;;;8.18;;
25938;SDS011;13739;51.172;4.466;2023-03-01T18:24:39;15.75;;;8.10;;
25938;SDS011;13739;51.172;4.466;2023-03-01T18:27:05;21.15;;;8.70;;
25938;SDS011;13739;51.172;4.466;2023-03-01T18:29:31;17.70;;;8.73;;
25938;SDS011;13739;51.172;4.466;2023-03-01T18:31:57;24.30;;;9.68;;
25938;SDS011;13739;51.172;4.466;2023-03-01T18:34:22;19.70;;;9.25;;
25938;SDS011;13739;51.172;4.466;2023-03-01T18:36:48;18.42;;;9.23;;
25938;SDS011;13739;51.172;4.466;2023-03-01T18:39:18;22.75;;;10.25;;
25938;SDS011;13739;51.172;4.466;2023-03-01T18:41:44;21.50;;;10.63;;
25938;SDS011;13739;51.172;4.466;2023-03-01T18:44:10;22.08;;;10.60;;
25938;SDS011;13739;51.172;4.466;2023-03-01T18:46:36;26.02;;;10.13;;
25938;SDS011;13739;51.172;4.466;2023-03-01T18:49:03;25.88;;;11.02;;
25938;SDS011;13739;51.172;4.466;2023-03-01T18:51:30;19.85;;;10.80;;
25938;SDS011;13739;51.172;4.466;2023-03-01T18:53:56;23.50;;;10.75;;
25938;SDS011;13739;51.172;4.466;2023-03-01T18:56:23;27.00;;;10.45;;
25938;SDS011;13739;51.172;4.466;2023-03-01T18:58:49;22.17;;;10.63;;
25938;SDS011;13739;51.172;4.466;2023-03-01T19:01:19;26.77;;;10.82;;
25938;SDS011;13739;51.172;4.466;2023-03-01T19:03:47;24.05;;;10.60;;
25938;SDS011;13739;51.172;4.466;2023-03-01T19:06:13;21.73;;;11.27;;
25938;SDS011;13739;51.172;4.466;2023-03-01T19:08:39;23.30;;;11.00;;
25938;SDS011;13739;51.172;4.466;2023-03-01T19:11:06;27.63;;;11.20;;
25938;SDS011;13739;51.172;4.466;2023-03-01T19:13:33;23.83;;;11.32;;
25938;SDS011;13739;51.172;4.466;2023-03-01T19:16:05;23.33;;;11.32;;
25938;SDS011;13739;51.172;4.466;2023-03-01T19:18:36;27.63;;;11.70;;
25938;SDS011;13739;51.172;4.466;2023-03-01T19:21:05;27.38;;;10.90;;
25938;SDS011;13739;51.172;4.466;2023-03-01T19:23:31;21.42;;;10.30;;
25938;SDS011;13739;51.172;4.466;2023-03-01T19:26:03;24.88;;;11.07;;
25938;SDS011;13739;51.172;4.466;2023-03-01T19:28:31;19.88;;;10.68;;
25938;SDS011;13739;51.172;4.466;2023-03-01T19:31:04;21.33;;;9.75;;
25938;SDS011;13739;51.172;4.466;2023-03-01T19:33:35;21.52;;;10.50;;
25938;SDS011;13739;51.172;4.466;2023-03-01T19:36:01;19.17;;;9.57;;
25938;SDS011;13739;51.172;4.466;2023-03-01T19:38:28;26.77;;;11.55;;
25938;SDS011;13739;51.172;4.466;2023-03-01T19:40:54;23.83;;;12.27;;
25938;SDS011;13739;51.172;4.466;2023-03-01T19:43:21;28.08;;;11.27;;
25938;SDS011;13739;51.172;4.466;2023-03-01T19:45:51;26.77;;;12.98;;
25938;SDS011;13739;51.172;4.466;2023-03-01T19:48:18;25.75;;;12.48;;
25938;SDS011;13739;51.172;4.466;2023-03-01T19:50:44;22.20;;;11.40;;
25938;SDS011;13739;51.172;4.466;2023-03-01T19:53:10;22.73;;;11.20;;
25938;SDS011;13739;51.172;4.466;2023-03-01T19:55:37;24.15;;;10.27;;
25938;SDS011;13739;51.172;4.466;2023-03-01T19:58:03;23.63;;;10.85;;
25938;SDS011;13739;51.172;4.466;2023-03-01T20:00:30;24.70;;;10.43;;
25938;SDS011;13739;51.172;4.466;2023-03-01T20:02:57;24.05;;;9.75;;
25938;SDS011;13739;51.172;4.466;2023-03-01T20:05:22;24.45;;;11.13;;
25938;SDS011;13739;51.172;4.466;2023-03-01T20:07:48;22.35;;;9.85;;
25938;SDS011;13739;51.172;4.466;2023-03-01T20:10:15;23.10;;;10.30;;
25938;SDS011;13739;51.172;4.466;2023-03-01T20:12:41;20.65;;;10.55;;
25938;SDS011;13739;51.172;4.466;2023-03-01T20:15:07;23.02;;;10.23;;
25938;SDS011;13739;51.172;4.466;2023-03-01T20:17:33;21.83;;;10.13;;
25938;SDS011;13739;51.172;4.466;2023-03-01T20:19:59;23.52;;;10.05;;
25938;SDS011;13739;51.172;4.466;2023-03-01T20:22:25;23.50;;;10.15;;
25938;SDS011;13739;51.172;4.466;2023-03-01T20:24:50;25.55;;;10.75;;
25938;SDS011;13739;51.172;4.466;2023-03-01T20:27:16;22.90;;;10.13;;
25938;SDS011;13739;51.172;4.466;2023-03-01T20:29:42;21.27;;;9.73;;
25938;SDS011;13739;51.172;4.466;2023-03-01T20:32:09;20.55;;;10.40;;
25938;SDS011;13739;51.172;4.466;2023-03-01T20:34:36;20.48;;;9.65;;
25938;SDS011;13739;51.172;4.466;2023-03-01T20:37:02;24.50;;;10.07;;
25938;SDS011;13739;51.172;4.466;2023-03-01T20:39:28;23.00;;;10.18;;
25938;SDS011;13739;51.172;4.466;2023-03-01T20:41:53;25.83;;;10.32;;
25938;SDS011;13739;51.172;4.466;2023-03-01T20:44:19;21.63;;;10.68;;
25938;SDS011;13739;51.172;4.466;2023-03-01T20:46:45;21.00;;;9.55;;
25938;SDS011;13739;51.172;4.466;2023-03-01T20:49:11;22.70;;;10.82;;
25938;SDS011;13739;51.172;4.466;2023-03-01T20:51:36;20.40;;;10.93;;
25938;SDS011;13739;51.172;4.466;2023-03-01T20:54:02;24.48;;;10.73;;
25938;SDS011;13739;51.172;4.466;2023-03-01T20:56:29;22.83;;;10.18;;
25938;SDS011;13739;51.172;4.466;2023-03-01T20:58:54;20.23;;;10.77;;
25938;SDS011;13739;51.172;4.466;2023-03-01T21:01:23;19.33;;;10.20;;
25938;SDS011;13739;51.172;4.466;2023-03-01T21:03:49;21.00;;;9.80;;
25938;SDS011;13739;51.172;4.466;2023-03-01T21:06:16;23.50;;;10.73;;
25938;SDS011;13739;51.172;4.466;2023-03-01T21:08:41;20.67;;;10.00;;
25938;SDS011;13739;51.172;4.466;2023-03-01T21:11:07;25.13;;;11.27;;
25938;SDS011;13739;51.172;4.466;2023-03-01T21:13:34;17.88;;;9.85;;
25938;SDS011;13739;51.172;4.466;2023-03-01T21:16:04;22.63;;;9.77;;
25938;SDS011;13739;51.172;4.466;2023-03-01T21:18:37;26.95;;;10.88;;
25938;SDS011;13739;51.172;4.466;2023-03-01T21:21:04;21.48;;;10.20;;
25938;SDS011;13739;51.172;4.466;2023-03-01T21:23:32;18.85;;;9.45;;
25938;SDS011;13739;51.172;4.466;2023-03-01T21:28:25;21.88;;;10.00;;
25938;SDS011;13739;51.172;4.466;2023-03-01T21:30:51;22.58;;;10.25;;
25938;SDS011;13739;51.172;4.466;2023-03-01T21:33:17;19.20;;;8.65;;
25938;SDS011;13739;51.172;4.466;2023-03-01T21:35:42;21.63;;;9.90;;
25938;SDS011;13739;51.172;4.466;2023-03-01T21:38:08;27.33;;;9.27;;
25938;SDS011;13739;51.172;4.466;2023-03-01T21:40:35;22.75;;;9.10;;
25938;SDS011;13739;51.172;4.466;2023-03-01T21:43:01;19.70;;;9.45;;
25938;SDS011;13739;51.172;4.466;2023-03-01T21:45:26;23.02;;;9.27;;
25938;SDS011;13739;51.172;4.466;2023-03-01T21:47:52;15.80;;;7.78;;
25938;SDS011;13739;51.172;4.466;2023-03-01T21:50:18;21.08;;;8.65;;
25938;SDS011;13739;51.172;4.466;2023-03-01T21:52:43;21.67;;;8.95;;
25938;SDS011;13739;51.172;4.466;2023-03-01T21:55:12;17.65;;;7.82;;
25938;SDS011;13739;51.172;4.466;2023-03-01T21:57:39;17.77;;;7.68;;
25938;SDS011;13739;51.172;4.466;2023-03-01T22:00:08;16.63;;;7.90;;
25938;SDS011;13739;51.172;4.466;2023-03-01T22:02:37;16.20;;;7.35;;
25938;SDS011;13739;51.172;4.466;2023-03-01T22:05:02;14.50;;;6.82;;
25938;SDS011;13739;51.172;4.466;2023-03-01T22:07:29;14.80;;;7.60;;
25938;SDS011;13739;51.172;4.466;2023-03-01T22:09:55;15.27;;;7.60;;
25938;SDS011;13739;51.172;4.466;2023-03-01T22:12:20;15.98;;;7.88;;
25938;SDS011;13739;51.172;4.466;2023-03-01T22:14:46;14.85;;;7.45;;
25938;SDS011;13739;51.172;4.466;2023-03-01T22:17:11;19.70;;;8.32;;
25938;SDS011;13739;51.172;4.466;2023-03-01T22:19:37;18.63;;;7.65;;
25938;SDS011;13739;51.172;4.466;2023-03-01T22:22:03;18.67;;;7.38;;
25938;SDS011;13739;51.172;4.466;2023-03-01T22:24:28;14.45;;;7.75;;
25938;SDS011;13739;51.172;4.466;2023-03-01T22:26:54;17.92;;;7.75;;
25938;SDS011;13739;51.172;4.466;2023-03-01T22:29:27;15.20;;;7.70;;
25938;SDS011;13739;51.172;4.466;2023-03-01T22:31:53;14.80;;;7.03;;
25938;SDS011;13739;51.172;4.466;2023-03-01T22:34:20;21.63;;;7.78;;
25938;SDS011;13739;51.172;4.466;2023-03-01T22:36:46;14.73;;;7.18;;
25938;SDS011;13739;51.172;4.466;2023-03-01T22:39:13;13.63;;;6.90;;
25938;SDS011;13739;51.172;4.466;2023-03-01T22:41:41;15.43;;;7.88;;
25938;SDS011;13739;51.172;4.466;2023-03-01T22:44:18;16.45;;;6.97;;
25938;SDS011;13739;51.172;4.466;2023-03-01T22:46:46;18.17;;;7.18;;
25938;SDS011;13739;51.172;4.466;2023-03-01T22:49:12;15.80;;;7.22;;
25938;SDS011;13739;51.172;4.466;2023-03-01T22:51:39;14.50;;;7.22;;
25938;SDS011;13739;51.172;4.466;2023-03-01T22:54:07;16.05;;;7.32;;
25938;SDS011;13739;51.172;4.466;2023-03-01T22:56:34;16.40;;;7.05;;
25938;SDS011;13739;51.172;4.466;2023-03-01T22:59:04;13.55;;;7.25;;
25938;SDS011;13739;51.172;4.466;2023-03-01T23:01:34;13.05;;;6.80;;
25938;SDS011;13739;51.172;4.466;2023-03-01T23:04:00;15.02;;;6.88;;
25938;SDS011;13739;51.172;4.466;2023-03-01T23:06:26;14.15;;;6.90;;
25938;SDS011;13739;51.172;4.466;2023-03-01T23:08:54;16.10;;;7.38;;
25938;SDS011;13739;51.172;4.466;2023-03-01T23:11:21;13.23;;;6.82;;
25938;SDS011;13739;51.172;4.466;2023-03-01T23:13:48;14.18;;;6.93;;
25938;SDS011;13739;51.172;4.466;2023-03-01T23:16:15;12.55;;;6.10;;
25938;SDS011;13739;51.172;4.466;2023-03-01T23:18:42;14.35;;;7.45;;
25938;SDS011;13739;51.172;4.466;2023-03-01T23:21:10;20.48;;;7.60;;
25938;SDS011;13739;51.172;4.466;2023-03-01T23:23:38;15.48;;;7.35;;
25938;SDS011;13739;51.172;4.466;2023-03-01T23:26:04;12.27;;;6.95;;
25938;SDS011;13739;51.172;4.466;2023-03-01T23:28:31;17.63;;;6.97;;
25938;SDS011;13739;51.172;4.466;2023-03-01T23:31:01;12.40;;;6.53;;
25938;SDS011;13739;51.172;4.466;2023-03-01T23:33:28;15.48;;;6.43;;
25938;SDS011;13739;51.172;4.466;2023-03-01T23:36:03;12.63;;;6.40;;
25938;SDS011;13739;51.172;4.466;2023-03-01T23:38:30;18.05;;;7.05;;
25938;SDS011;13739;51.172;4.466;2023-03-01T23:40:55;11.38;;;6.47;;
25938;SDS011;13739;51.172;4.466;2023-03-01T23:43:21;13.73;;;6.95;;
25938;SDS011;13739;51.172;4.466;2023-03-01T23:45:47;17.20;;;7.18;;
25938;SDS011;13739;51.172;4.466;2023-03-01T23:48:17;16.58;;;7.90;;
25938;SDS011;13739;51.172;4.466;2023-03-01T23:50:44;14.75;;;7.85;;
25938;SDS011;13739;51.172;4.466;2023-03-01T23:53:14;16.75;;;6.60;;
25938;SDS011;13739;51.172;4.466;2023-03-01T23:55:43;14.27;;;6.90;;
25938;SDS011;13739;51.172;4.466;2023-03-01T23:58:12;12.93;;;6.60;;
